createdAt,value
2023-04-29T00:01:42.708Z,19.80
2023-04-29T00:05:10.804Z,19.20
2023-04-29T00:08:38.198Z,18.80
2023-04-29T00:12:05.145Z,18.40
2023-04-29T00:15:31.997Z,18.00
2023-04-29T00:18:59.800Z,16.90
2023-04-29T00:22:27.425Z,17.50
2023-04-29T00:25:54.210Z,18.50
2023-04-29T00:29:23.792Z,17.50
2023-04-29T00:32:51.080Z,17.60
2023-04-29T00:36:18.133Z,18.10
2023-04-29T00:39:44.962Z,17.90
2023-04-29T00:43:12.018Z,17.70
2023-04-29T00:46:39.240Z,18.00
2023-04-29T00:50:07.708Z,18.50
2023-04-29T00:53:35.160Z,17.60
2023-04-29T00:57:02.707Z,18.20
2023-04-29T01:00:30.023Z,17.60
2023-04-29T01:03:57.905Z,17.50
2023-04-29T01:07:32.803Z,18.00
2023-04-29T01:11:09.076Z,18.40
2023-04-29T01:14:36.945Z,18.60
2023-04-29T01:18:12.089Z,18.20
2023-04-29T01:21:49.756Z,18.60
2023-04-29T01:25:17.685Z,19.00
2023-04-29T01:29:24.886Z,18.70
2023-04-29T01:33:01.764Z,19.40
2023-04-29T01:36:44.222Z,19.10
2023-04-29T01:40:17.502Z,19.90
2023-04-29T01:43:59.916Z,19.10
2023-04-29T01:47:28.433Z,19.00
2023-04-29T01:50:55.349Z,19.60
2023-04-29T01:54:22.933Z,20.00
2023-04-29T01:57:49.814Z,17.70
2023-04-29T02:01:35.820Z,17.70
2023-04-29T02:05:02.617Z,20.60
2023-04-29T02:08:29.554Z,20.30
2023-04-29T02:11:56.878Z,19.20
2023-04-29T02:15:23.989Z,18.90
2023-04-29T02:18:51.130Z,18.80
2023-04-29T02:22:17.963Z,19.10
2023-04-29T02:25:44.999Z,17.90
2023-04-29T02:29:12.432Z,19.20
2023-04-29T02:32:39.499Z,17.60
2023-04-29T02:36:07.122Z,19.50
2023-04-29T02:39:33.971Z,18.40
2023-04-29T02:43:01.584Z,17.50
2023-04-29T02:46:28.898Z,17.50
2023-04-29T02:49:59.057Z,18.20
2023-04-29T02:53:25.764Z,18.50
2023-04-29T02:56:52.906Z,19.00
2023-04-29T03:00:20.484Z,18.80
2023-04-29T03:03:47.522Z,17.70
2023-04-29T03:07:14.575Z,18.40
2023-04-29T03:10:41.899Z,18.20
2023-04-29T03:14:08.961Z,18.20
2023-04-29T03:17:36.756Z,18.40
2023-04-29T03:21:04.869Z,18.50
2023-04-29T03:24:31.755Z,19.30
2023-04-29T03:27:59.000Z,18.80
2023-04-29T03:31:27.377Z,18.00
2023-04-29T03:34:54.681Z,18.50
2023-04-29T03:38:50.890Z,18.60
2023-04-29T03:42:17.895Z,20.20
2023-04-29T03:45:45.079Z,20.40
2023-04-29T03:49:14.360Z,20.60
2023-04-29T03:52:41.565Z,19.80
2023-04-29T03:56:14.106Z,20.50
2023-04-29T03:59:41.294Z,19.70
2023-04-29T04:03:09.125Z,20.30
2023-04-29T04:06:37.780Z,19.30
2023-04-29T04:10:05.163Z,20.10
2023-04-29T04:13:32.697Z,19.00
2023-04-29T04:17:00.385Z,20.20
2023-04-29T04:20:28.062Z,19.90
2023-04-29T04:23:55.233Z,18.90
2023-04-29T04:27:23.069Z,19.20
2023-04-29T04:30:50.997Z,19.50
2023-04-29T04:34:18.841Z,18.40
2023-04-29T04:37:46.890Z,19.30
2023-04-29T04:41:14.523Z,21.10
2023-04-29T04:44:44.146Z,21.80
2023-04-29T04:48:17.358Z,20.00
2023-04-29T04:51:48.916Z,19.80
2023-04-29T04:55:15.992Z,19.70
2023-04-29T04:58:45.226Z,20.30
2023-04-29T05:02:12.253Z,19.70
2023-04-29T05:05:39.586Z,20.10
2023-04-29T05:09:06.996Z,18.90
2023-04-29T05:12:35.496Z,18.30
2023-04-29T05:16:06.605Z,18.90
2023-04-29T05:19:33.987Z,18.80
2023-04-29T05:23:01.040Z,17.90
2023-04-29T05:26:28.973Z,18.00
2023-04-29T05:30:00.047Z,17.40
2023-04-29T05:33:27.294Z,17.20
2023-04-29T05:36:54.539Z,16.70
2023-04-29T05:40:23.399Z,16.70
2023-04-29T05:43:50.758Z,15.40
2023-04-29T05:47:17.816Z,15.30
2023-04-29T05:50:45.722Z,14.80
2023-04-29T05:54:12.929Z,15.80
2023-04-29T05:57:40.167Z,14.30
2023-04-29T06:01:07.965Z,13.90
2023-04-29T06:04:35.864Z,14.50
2023-04-29T06:08:35.415Z,13.10
2023-04-29T06:12:05.989Z,14.20
2023-04-29T06:15:33.120Z,13.70
2023-04-29T06:19:00.573Z,13.60
2023-04-29T06:22:28.196Z,12.80
2023-04-29T06:25:56.236Z,13.90
2023-04-29T06:29:23.295Z,13.70
2023-04-29T06:32:51.902Z,13.50
2023-04-29T06:36:19.179Z,14.00
2023-04-29T06:40:04.649Z,14.10
2023-04-29T06:43:52.766Z,13.80
2023-04-29T06:47:38.798Z,13.00
2023-04-29T06:51:13.612Z,13.20
2023-04-29T06:54:40.511Z,14.00
2023-04-29T06:58:07.456Z,15.20
2023-04-29T07:01:34.873Z,14.80
2023-04-29T07:05:02.915Z,12.80
2023-04-29T07:08:30.545Z,14.50
2023-04-29T07:11:57.808Z,13.40
2023-04-29T07:15:24.834Z,13.50
2023-04-29T07:18:52.078Z,14.30
2023-04-29T07:22:19.724Z,13.60
2023-04-29T07:25:46.824Z,14.30
2023-04-29T07:29:14.861Z,13.70
2023-04-29T07:32:41.961Z,14.50
2023-04-29T07:36:09.767Z,14.20
2023-04-29T07:39:37.489Z,15.20
2023-04-29T07:43:06.912Z,13.40
2023-04-29T07:50:00.508Z,14.20
2023-04-29T07:53:27.659Z,13.80
2023-04-29T07:56:54.559Z,13.00
2023-04-29T08:00:22.642Z,13.20
2023-04-29T08:03:50.473Z,13.60
2023-04-29T08:07:19.252Z,12.00
2023-04-29T08:10:46.372Z,11.80
2023-04-29T08:14:13.721Z,12.80
2023-04-29T08:17:40.840Z,12.80
2023-04-29T08:21:09.287Z,12.20
2023-04-29T08:24:36.386Z,11.70
2023-04-29T08:28:03.221Z,11.80
2023-04-29T08:31:30.161Z,10.70
2023-04-29T08:34:57.088Z,11.70
2023-04-29T08:38:24.253Z,11.50
2023-04-29T08:41:52.066Z,11.80
2023-04-29T08:45:24.325Z,13.10
2023-04-29T08:48:53.055Z,12.90
2023-04-29T08:52:19.926Z,12.30
2023-04-29T08:55:49.813Z,13.00
2023-04-29T08:59:18.296Z,11.60
2023-04-29T09:02:51.603Z,12.40
2023-04-29T09:06:21.324Z,12.50
2023-04-29T09:09:49.625Z,12.10
2023-04-29T09:13:28.070Z,11.90
2023-04-29T09:16:55.333Z,11.30
2023-04-29T09:20:32.557Z,11.80
2023-04-29T09:24:01.485Z,11.30
2023-04-29T09:27:31.244Z,10.90
2023-04-29T09:34:35.739Z,7.60
2023-04-29T09:38:16.484Z,7.50
2023-04-29T09:41:59.175Z,5.90
2023-04-29T09:45:37.817Z,6.60
2023-04-29T09:49:06.245Z,6.80
2023-04-29T09:52:43.253Z,7.70
2023-04-29T09:56:10.249Z,8.60
2023-04-29T09:59:38.609Z,8.50
2023-04-29T10:03:07.531Z,9.50
2023-04-29T10:06:34.698Z,9.80
2023-04-29T10:10:02.836Z,7.80
2023-04-29T10:13:30.657Z,8.20
2023-04-29T10:17:04.040Z,7.90
2023-04-29T10:20:31.515Z,8.00
2023-04-29T10:24:00.327Z,8.40
2023-04-29T10:27:29.015Z,8.10
2023-04-29T10:30:57.239Z,8.30
2023-04-29T10:34:25.707Z,8.00
2023-04-29T10:37:53.013Z,7.60
2023-04-29T10:41:25.714Z,9.00
2023-04-29T10:45:22.923Z,8.00
2023-04-29T10:48:50.730Z,9.70
2023-04-29T10:52:19.617Z,8.50
2023-04-29T10:55:50.325Z,8.70
2023-04-29T10:59:21.050Z,9.70
2023-04-29T11:02:48.668Z,9.60
2023-04-29T11:06:15.965Z,9.60
2023-04-29T11:09:43.370Z,9.70
2023-04-29T11:13:28.267Z,10.40
2023-04-29T11:16:57.663Z,9.70
2023-04-29T11:20:25.804Z,10.50
2023-04-29T11:23:54.548Z,11.80
2023-04-29T11:27:25.458Z,10.50
2023-04-29T11:30:53.003Z,11.70
2023-04-29T11:34:26.042Z,12.40
2023-04-29T11:37:54.073Z,11.90
2023-04-29T11:41:21.786Z,11.20
2023-04-29T11:44:52.500Z,12.50
2023-04-29T11:48:22.327Z,13.00
2023-04-29T11:51:49.268Z,13.10
2023-04-29T11:55:16.779Z,13.20
2023-04-29T11:58:45.763Z,13.50
2023-04-29T12:02:16.363Z,11.80
2023-04-29T12:05:47.082Z,12.50
2023-04-29T12:09:15.835Z,12.00
2023-04-29T12:12:44.279Z,10.60
2023-04-29T12:16:13.786Z,10.30
2023-04-29T12:19:44.096Z,10.60
2023-04-29T12:23:18.984Z,10.10
2023-04-29T12:26:48.199Z,8.00
2023-04-29T12:30:16.038Z,7.70
2023-04-29T12:33:45.591Z,7.80
2023-04-29T12:37:13.269Z,8.10
2023-04-29T12:40:40.263Z,8.30
2023-04-29T12:44:08.453Z,8.70
2023-04-29T12:47:37.140Z,8.20
2023-04-29T12:51:05.541Z,9.30
2023-04-29T12:54:32.658Z,8.10
2023-04-29T12:58:01.115Z,8.40
2023-04-29T13:01:28.453Z,8.60
2023-04-29T13:04:55.653Z,7.50
2023-04-29T13:08:23.308Z,7.80
2023-04-29T13:11:50.262Z,8.30
2023-04-29T13:15:17.264Z,9.10
2023-04-29T13:18:53.417Z,9.20
2023-04-29T13:22:29.366Z,8.40
2023-04-29T13:25:56.565Z,8.70
2023-04-29T13:29:24.104Z,9.40
2023-04-29T13:32:55.389Z,9.50
2023-04-29T13:36:28.397Z,10.70
2023-04-29T13:39:57.531Z,5.40
2023-04-29T13:43:32.987Z,6.00
2023-04-29T13:47:06.340Z,3.40
2023-04-29T14:04:34.740Z,2.90
2023-04-29T14:08:03.782Z,2.60
2023-04-29T14:11:31.331Z,3.10
2023-04-29T14:15:00.145Z,3.10
2023-04-29T14:18:30.188Z,3.20
2023-04-29T14:21:57.670Z,4.50
2023-04-29T14:25:26.686Z,5.00
2023-04-29T14:28:58.340Z,6.00
2023-04-29T14:32:26.185Z,6.60
2023-04-29T14:35:53.378Z,7.70
2023-04-29T14:39:20.977Z,7.70
2023-04-29T14:42:48.931Z,8.00
2023-04-29T14:46:17.796Z,8.40
2023-04-29T14:49:45.187Z,10.90
2023-04-29T14:53:13.077Z,9.00
2023-04-29T14:56:41.270Z,8.60
2023-04-29T15:00:11.153Z,9.10
2023-04-29T15:03:43.687Z,8.10
2023-04-29T15:07:12.287Z,8.60
2023-04-29T15:10:40.218Z,8.50
2023-04-29T15:14:09.465Z,9.00
2023-04-29T15:17:36.909Z,8.80
2023-04-29T15:21:05.590Z,23.30
2023-04-29T15:24:32.971Z,34.50
2023-04-29T15:28:01.332Z,96.70
2023-04-29T15:31:30.830Z,109.70
2023-04-29T15:35:00.576Z,105.10
2023-04-29T15:38:30.175Z,86.60
2023-04-29T15:41:59.079Z,37.30
2023-04-29T15:45:26.566Z,21.50
2023-04-29T15:48:55.022Z,58.40
2023-04-29T15:52:23.390Z,44.40
2023-04-29T15:55:51.421Z,37.30
2023-04-29T15:59:18.909Z,29.20
2023-04-29T16:02:46.121Z,30.80
2023-04-29T16:06:14.286Z,13.50
2023-04-29T16:09:41.454Z,10.90
2023-04-29T16:13:08.895Z,10.20
2023-04-29T16:16:36.417Z,12.00
2023-04-29T16:20:04.293Z,12.30
2023-04-29T16:23:32.614Z,11.70
2023-04-29T16:27:01.575Z,13.80
2023-04-29T16:30:29.139Z,30.30
2023-04-29T16:33:58.800Z,23.30
2023-04-29T16:40:57.333Z,18.10
2023-04-29T16:44:26.634Z,19.80
2023-04-29T16:47:56.813Z,19.30
2023-04-29T16:51:25.369Z,22.10
2023-04-29T16:54:53.037Z,21.60
2023-04-29T16:58:23.078Z,21.70
2023-04-29T17:01:50.853Z,23.30
2023-04-29T17:05:19.414Z,23.70
2023-04-29T17:08:48.644Z,23.90
2023-04-29T17:12:17.972Z,26.80
2023-04-29T17:15:51.059Z,28.30
2023-04-29T17:19:21.463Z,31.70
2023-04-29T17:22:49.318Z,35.00
2023-04-29T17:26:17.419Z,37.50
2023-04-29T17:29:45.320Z,32.20
2023-04-29T17:33:14.960Z,33.00
2023-04-29T17:40:11.840Z,35.10
2023-04-29T17:43:39.671Z,34.80
2023-04-29T17:47:09.448Z,34.60
2023-04-29T17:50:42.207Z,37.50
2023-04-29T17:54:11.881Z,36.60
2023-04-29T17:57:40.424Z,22.40
2023-04-29T18:01:08.277Z,40.70
2023-04-29T18:04:37.440Z,38.30
2023-04-29T18:08:05.054Z,36.80
2023-04-29T18:11:33.115Z,30.10
2023-04-29T18:15:01.699Z,34.40
2023-04-29T18:18:31.095Z,33.60
2023-04-29T18:21:59.348Z,31.80
2023-04-29T18:25:28.068Z,34.80
2023-04-29T18:28:55.640Z,32.80
2023-04-29T18:32:23.596Z,32.00
2023-04-29T18:35:51.250Z,32.60
2023-04-29T18:39:18.838Z,31.50
2023-04-29T18:42:46.312Z,30.70
2023-04-29T18:46:18.069Z,29.40
2023-04-29T18:49:46.168Z,30.80
2023-04-29T18:53:15.362Z,27.30
2023-04-29T18:56:43.672Z,28.40
2023-04-29T19:00:15.354Z,27.70
2023-04-29T19:03:43.811Z,26.90
2023-04-29T19:07:12.034Z,23.10
2023-04-29T19:10:41.950Z,28.30
2023-04-29T19:14:10.928Z,29.90
2023-04-29T19:17:38.864Z,24.40
2023-04-29T19:21:06.554Z,21.30
2023-04-29T19:24:35.287Z,22.80
2023-04-29T19:28:02.043Z,22.70
2023-04-29T19:31:29.077Z,17.00
2023-04-29T19:34:55.995Z,24.60
2023-04-29T19:38:22.949Z,16.50
2023-04-29T19:41:49.757Z,15.70
2023-04-29T19:45:17.040Z,17.20
2023-04-29T19:48:43.902Z,18.60
2023-04-29T19:52:10.837Z,19.80
2023-04-29T19:55:39.146Z,22.30
2023-04-29T19:59:06.522Z,21.90
2023-04-29T20:02:33.859Z,23.50
2023-04-29T20:06:01.285Z,22.20
2023-04-29T20:09:28.134Z,20.30
2023-04-29T20:12:54.968Z,18.60
2023-04-29T20:16:23.362Z,17.20
2023-04-29T20:19:50.399Z,16.50
2023-04-29T20:23:17.411Z,16.20
2023-04-29T20:26:44.210Z,15.40
2023-04-29T20:30:13.037Z,17.00
2023-04-29T20:33:40.071Z,17.90
2023-04-29T20:37:08.062Z,17.30
2023-04-29T20:40:35.019Z,16.10
2023-04-29T20:44:01.754Z,16.00
2023-04-29T20:47:29.269Z,17.10
2023-04-29T20:50:56.128Z,15.90
2023-04-29T20:54:23.058Z,16.10
2023-04-29T20:57:50.550Z,12.90
2023-04-29T21:01:19.115Z,14.60
2023-04-29T21:04:46.395Z,15.00
2023-04-29T21:08:13.637Z,13.90
2023-04-29T21:11:40.582Z,14.20
2023-04-29T21:15:09.111Z,14.40
2023-04-29T21:18:36.319Z,13.80
2023-04-29T21:22:03.440Z,14.50
2023-04-29T21:25:30.393Z,14.20
2023-04-29T21:28:57.427Z,15.20
2023-04-29T21:32:24.667Z,15.10
2023-04-29T21:35:52.185Z,15.20
2023-04-29T21:39:19.222Z,14.00
2023-04-29T21:42:47.020Z,14.50
2023-04-29T21:46:14.086Z,15.20
2023-04-29T21:49:41.857Z,16.50
2023-04-29T21:53:08.857Z,15.00
2023-04-29T21:56:36.129Z,15.00
2023-04-29T22:00:11.107Z,15.90
2023-04-29T22:03:39.749Z,18.10
2023-04-29T22:07:06.661Z,18.40
2023-04-29T22:10:33.843Z,18.80
2023-04-29T22:14:00.939Z,18.30
2023-04-29T22:17:27.813Z,18.80
2023-04-29T22:20:54.603Z,18.80
2023-04-29T22:24:21.348Z,17.90
2023-04-29T22:27:48.319Z,17.40
2023-04-29T22:31:15.391Z,17.20
2023-04-29T22:34:44.149Z,16.00
2023-04-29T22:38:11.226Z,15.80
2023-04-29T22:41:38.120Z,16.50
2023-04-29T22:45:05.362Z,16.00
2023-04-29T22:48:32.262Z,16.40
2023-04-29T22:51:59.395Z,16.80
2023-04-29T22:55:26.405Z,17.00
2023-04-29T22:58:53.409Z,17.70
2023-04-29T23:02:20.248Z,18.30
2023-04-29T23:05:47.242Z,18.00
2023-04-29T23:09:14.314Z,18.60
2023-04-29T23:12:41.191Z,19.30
2023-04-29T23:16:10.711Z,18.70
2023-04-29T23:19:38.150Z,18.90
2023-04-29T23:23:05.039Z,19.00
2023-04-29T23:26:31.793Z,18.40
2023-04-29T23:29:58.750Z,19.40
2023-04-29T23:33:25.998Z,18.50
2023-04-29T23:36:52.876Z,17.20
2023-04-29T23:40:20.044Z,17.20
2023-04-29T23:43:46.889Z,16.70
2023-04-29T23:47:13.926Z,16.70
2023-04-29T23:50:40.947Z,17.30
2023-04-29T23:54:07.779Z,17.60
2023-04-29T23:57:34.593Z,17.10
